createdAt,value
2023-02-22T00:00:29.396Z,83.07
2023-02-22T00:03:01.462Z,82.97
2023-02-22T00:05:35.267Z,83.40
2023-02-22T00:08:09.485Z,83.13
2023-02-22T00:10:41.549Z,83.03
2023-02-22T00:13:16.195Z,83.05
2023-02-22T00:15:49.003Z,83.18
2023-02-22T00:18:28.090Z,83.28
2023-02-22T00:21:02.168Z,82.87
2023-02-22T00:23:52.816Z,83.19
2023-02-22T00:26:27.214Z,83.16
2023-02-22T00:29:11.622Z,82.95
2023-02-22T00:31:41.884Z,83.09
2023-02-22T08:56:42.317Z,75.94
2023-02-22T08:59:11.096Z,76.28
2023-02-22T09:01:39.634Z,76.81
2023-02-22T09:04:08.128Z,77.30
2023-02-22T09:06:36.708Z,77.39
2023-02-22T09:09:05.193Z,77.65
2023-02-22T09:11:33.406Z,77.20
2023-02-22T09:14:03.156Z,77.04
2023-02-22T09:16:32.348Z,76.47
2023-02-22T09:19:00.829Z,75.40
2023-02-22T09:21:29.306Z,74.66
2023-02-22T09:23:57.632Z,74.26
2023-02-22T09:26:27.717Z,74.08
2023-02-22T09:28:56.129Z,73.71
2023-02-22T09:31:26.042Z,73.80
2023-02-22T09:33:54.423Z,73.30
2023-02-22T09:36:24.060Z,72.60
2023-02-22T09:38:54.096Z,72.21
2023-02-22T09:41:35.191Z,71.71
2023-02-22T09:44:19.662Z,71.42
2023-02-22T09:46:51.073Z,67.34
2023-02-22T09:49:25.116Z,63.93
2023-02-22T09:52:00.130Z,61.26
2023-02-22T09:54:35.135Z,56.91
2023-02-22T09:57:08.786Z,58.22
2023-02-22T09:59:42.467Z,60.65
2023-02-22T10:02:26.703Z,61.17
2023-02-22T10:05:01.665Z,60.33
2023-02-22T10:07:37.216Z,57.04
2023-02-22T10:10:06.748Z,55.61
2023-02-22T10:12:45.431Z,53.91
2023-02-22T10:15:42.795Z,53.24
2023-02-22T10:18:55.197Z,53.59
2023-02-22T10:21:50.875Z,56.67
2023-02-22T10:24:31.890Z,59.13
2023-02-22T10:27:03.136Z,60.64
2023-02-22T10:29:37.587Z,62.47
2023-02-22T10:32:07.152Z,64.38
2023-02-22T10:34:42.761Z,65.33
2023-02-22T10:37:24.399Z,66.59
2023-02-22T10:39:58.109Z,65.92
2023-02-22T10:42:28.909Z,66.10
2023-02-22T10:44:57.366Z,65.84
2023-02-22T10:47:26.279Z,65.57
2023-02-22T10:50:00.664Z,64.80
2023-02-22T10:52:31.501Z,65.84
2023-02-22T10:55:14.046Z,66.45
2023-02-22T10:57:47.508Z,66.21
2023-02-22T11:00:19.834Z,65.45
2023-02-22T11:02:54.711Z,64.14
2023-02-22T11:05:37.465Z,63.73
2023-02-22T11:08:17.547Z,63.82
2023-02-22T11:10:46.056Z,63.71
2023-02-22T11:13:27.091Z,62.33
2023-02-22T11:15:59.704Z,60.73
2023-02-22T11:18:30.804Z,62.12
2023-02-22T11:21:10.549Z,61.71
2023-02-22T11:23:44.843Z,62.36
2023-02-22T11:26:21.846Z,60.26
2023-02-22T11:28:56.238Z,61.53
2023-02-22T11:31:27.455Z,62.49
2023-02-22T11:33:58.173Z,61.34
2023-02-22T11:36:38.080Z,61.62
2023-02-22T11:39:11.627Z,62.04
2023-02-22T11:41:40.216Z,62.55
2023-02-22T11:44:23.739Z,62.42
2023-02-22T11:46:56.012Z,61.83
2023-02-22T11:49:26.383Z,62.71
2023-02-22T11:52:14.663Z,61.87
2023-02-22T11:55:07.254Z,59.49
2023-02-22T11:57:47.866Z,58.65
2023-02-22T12:00:25.681Z,58.08
2023-02-22T12:03:16.897Z,59.35
2023-02-22T12:06:02.845Z,60.18
2023-02-22T12:08:45.052Z,60.28
2023-02-22T12:11:19.519Z,60.08
2023-02-22T12:14:03.020Z,58.74
2023-02-22T12:16:44.535Z,57.81
2023-02-22T12:19:23.279Z,59.42
2023-02-22T12:21:57.117Z,61.04
2023-02-22T12:24:36.863Z,59.66
2023-02-22T12:27:16.923Z,57.07
2023-02-22T12:29:50.966Z,57.41
2023-02-22T12:32:55.516Z,57.79
2023-02-22T12:35:29.156Z,59.43
2023-02-22T12:38:05.967Z,56.78
2023-02-22T12:40:52.814Z,57.12
2023-02-22T12:43:35.531Z,56.18
2023-02-22T12:46:13.529Z,57.11
2023-02-22T12:48:56.423Z,56.86
2023-02-22T12:51:38.985Z,56.81
2023-02-22T12:54:13.314Z,57.28
2023-02-22T12:57:03.111Z,56.89
2023-02-22T12:59:42.852Z,57.74
2023-02-22T13:02:30.225Z,56.87
2023-02-22T13:05:09.938Z,56.39
2023-02-22T13:08:30.043Z,57.01
2023-02-22T13:11:26.410Z,57.40
2023-02-22T13:14:27.664Z,55.42
2023-02-22T13:17:10.619Z,57.31
2023-02-22T13:20:00.794Z,55.48
2023-02-22T13:22:50.298Z,55.21
2023-02-22T13:25:43.872Z,55.25
2023-02-22T13:28:44.573Z,55.07
2023-02-22T13:31:55.715Z,56.79
2023-02-22T13:34:40.411Z,60.00
2023-02-22T13:37:33.279Z,62.53
2023-02-22T13:40:26.180Z,63.04
2023-02-22T13:43:16.511Z,62.42
2023-02-22T13:46:22.044Z,63.15
2023-02-22T13:49:20.153Z,62.91
2023-02-22T13:51:53.101Z,62.29
2023-02-22T13:54:29.812Z,63.04
2023-02-22T13:56:59.189Z,64.39
2023-02-22T13:59:36.812Z,64.39
2023-02-22T14:02:32.038Z,63.88
2023-02-22T14:05:00.408Z,64.34
2023-02-22T14:08:00.013Z,63.41
2023-02-22T14:10:43.969Z,63.24
2023-02-22T14:13:14.221Z,61.84
2023-02-22T14:16:21.137Z,60.57
2023-02-22T14:18:52.175Z,61.06
2023-02-22T14:21:22.290Z,59.55
2023-02-22T14:23:53.754Z,60.58
2023-02-22T14:26:27.975Z,62.59
2023-02-22T14:28:59.274Z,63.35
2023-02-22T14:31:36.532Z,64.26
2023-02-22T14:34:13.890Z,63.97
2023-02-22T14:36:52.401Z,63.27
2023-02-22T14:39:27.501Z,63.61
2023-02-22T14:42:01.981Z,63.08
2023-02-22T14:44:36.709Z,62.23
2023-02-22T14:47:08.464Z,61.65
2023-02-22T14:49:46.622Z,62.43
2023-02-22T14:52:24.405Z,61.16
2023-02-22T14:55:17.882Z,61.45
2023-02-22T14:58:01.836Z,61.94
2023-02-22T15:00:42.028Z,62.73
2023-02-22T15:03:20.540Z,62.53
2023-02-22T15:05:49.852Z,62.52
2023-02-22T15:08:28.101Z,62.85
2023-02-22T15:10:58.984Z,61.51
2023-02-22T15:13:33.021Z,61.46
2023-02-22T15:16:03.345Z,61.00
2023-02-22T15:18:39.803Z,59.20
2023-02-22T15:21:16.586Z,56.96
2023-02-22T15:23:47.129Z,57.25
2023-02-22T15:26:24.522Z,56.66
2023-02-22T15:28:57.620Z,56.15
2023-02-22T15:31:31.016Z,54.65
2023-02-22T15:34:10.594Z,54.35
2023-02-22T15:36:39.278Z,55.51
2023-02-22T15:39:09.234Z,55.88
2023-02-22T15:41:39.913Z,55.42
2023-02-22T15:44:23.303Z,55.78
2023-02-22T15:46:54.578Z,56.35
2023-02-22T15:49:27.850Z,55.23
2023-02-22T15:52:07.649Z,54.74
2023-02-22T15:54:46.155Z,56.41
2023-02-22T15:57:21.790Z,56.71
2023-02-22T15:59:54.030Z,56.70
2023-02-22T16:02:37.172Z,56.53
2023-02-22T16:05:10.164Z,55.27
2023-02-22T16:07:45.451Z,55.07
2023-02-22T16:10:29.935Z,55.21
2023-02-22T16:13:31.512Z,55.26
2023-02-22T16:16:03.809Z,55.14
2023-02-22T16:18:34.906Z,55.01
2023-02-22T16:21:06.950Z,54.50
2023-02-22T16:23:47.634Z,54.11
2023-02-22T16:26:30.097Z,55.22
2023-02-22T16:29:03.658Z,55.96
2023-02-22T16:31:34.182Z,57.12
2023-02-22T16:34:03.782Z,57.12
2023-02-22T16:36:42.211Z,58.00
2023-02-22T16:39:19.441Z,58.30
2023-02-22T16:41:48.954Z,57.52
2023-02-22T16:44:25.915Z,57.92
2023-02-22T16:46:58.342Z,57.96
2023-02-22T16:49:30.106Z,57.93
2023-02-22T16:52:01.856Z,55.78
2023-02-22T16:54:34.992Z,55.26
2023-02-22T16:57:05.164Z,55.46
2023-02-22T16:59:40.023Z,55.71
2023-02-22T17:02:14.416Z,55.94
2023-02-22T17:04:49.528Z,56.13
2023-02-22T17:07:20.572Z,56.37
2023-02-22T17:09:51.155Z,55.84
2023-02-22T17:12:19.790Z,56.41
2023-02-22T17:14:49.498Z,56.24
2023-02-22T17:17:20.329Z,57.30
2023-02-22T17:19:48.756Z,57.80
2023-02-22T17:22:22.326Z,58.07
2023-02-22T17:24:50.790Z,58.61
2023-02-22T17:27:19.177Z,59.03
2023-02-22T17:29:48.149Z,59.53
2023-02-22T17:32:18.161Z,59.45
2023-02-22T17:34:46.531Z,59.52
2023-02-22T17:37:17.283Z,59.17
2023-02-22T17:39:45.618Z,59.61
2023-02-22T17:42:15.771Z,59.48
2023-02-22T17:44:44.150Z,60.08
2023-02-22T17:47:12.530Z,60.27
2023-02-22T17:49:42.488Z,60.78
2023-02-22T17:52:15.681Z,60.85
2023-02-22T17:54:44.088Z,61.43
2023-02-22T17:57:12.386Z,60.99
2023-02-22T17:59:40.881Z,61.22
2023-02-22T18:02:10.694Z,61.65
2023-02-22T18:04:40.517Z,61.82
2023-02-22T18:07:10.361Z,61.95
2023-02-22T18:09:38.880Z,62.21
2023-02-22T18:12:07.443Z,62.50
2023-02-22T18:14:38.853Z,63.04
2023-02-22T18:17:07.819Z,62.51
2023-02-22T18:19:36.152Z,63.33
2023-02-22T18:22:08.438Z,63.08
2023-02-22T18:24:38.285Z,63.00
2023-02-22T18:27:07.150Z,63.30
2023-02-22T18:29:35.552Z,63.01
2023-02-22T18:32:04.042Z,63.48
2023-02-22T18:34:33.135Z,63.65
2023-02-22T18:37:01.536Z,63.48
2023-02-22T18:39:33.936Z,63.19
2023-02-22T18:42:03.899Z,63.38
2023-02-22T18:44:32.518Z,63.42
2023-02-22T18:47:01.685Z,63.31
2023-02-22T18:49:30.536Z,63.60
2023-02-22T18:51:59.731Z,64.23
2023-02-22T18:54:30.575Z,64.22
2023-02-22T18:57:00.043Z,64.55
2023-02-22T18:59:29.967Z,64.68
2023-02-22T19:01:58.472Z,64.88
2023-02-22T19:04:27.003Z,65.61
2023-02-22T19:06:55.505Z,65.36
2023-02-22T19:09:23.888Z,65.79
2023-02-22T19:11:54.607Z,66.27
2023-02-22T19:14:23.498Z,66.48
2023-02-22T19:16:56.664Z,66.46
2023-02-22T19:19:26.659Z,66.47
2023-02-22T19:21:58.828Z,66.50
2023-02-22T19:24:27.212Z,66.54
2023-02-22T19:27:00.042Z,66.62
2023-02-22T19:29:31.398Z,66.50
2023-02-22T19:32:01.329Z,66.63
2023-02-22T19:34:31.394Z,66.42
2023-02-22T19:37:00.972Z,66.69
2023-02-22T19:39:38.384Z,66.42
2023-02-22T19:42:10.920Z,66.89
2023-02-22T19:44:39.654Z,67.38
2023-02-22T19:47:20.369Z,68.16
2023-02-22T19:49:51.124Z,68.46
2023-02-22T19:52:23.074Z,68.16
2023-02-22T19:54:54.326Z,68.15
2023-02-22T19:57:24.341Z,67.68
2023-02-22T19:59:58.980Z,67.64
2023-02-22T20:02:29.130Z,67.68
2023-02-22T20:04:57.613Z,67.29
2023-02-22T20:07:33.871Z,67.30
2023-02-22T20:10:04.772Z,67.29
2023-02-22T20:12:37.192Z,67.21
2023-02-22T20:15:17.561Z,67.25
2023-02-22T20:17:51.064Z,67.30
2023-02-22T20:20:24.423Z,67.30
2023-02-22T20:22:53.380Z,67.27
2023-02-22T20:25:26.252Z,67.57
2023-02-22T20:27:56.581Z,67.74
2023-02-22T20:30:26.453Z,67.30
2023-02-22T20:33:00.652Z,67.60
2023-02-22T20:35:36.860Z,67.59
2023-02-22T20:41:50.936Z,68.36
2023-02-22T20:44:22.827Z,68.51
2023-02-22T20:47:16.451Z,68.41
2023-02-22T20:50:00.692Z,68.16
2023-02-22T20:52:37.183Z,68.71
2023-02-22T20:55:06.357Z,68.98
2023-02-22T20:57:44.136Z,69.48
2023-02-22T21:06:00.470Z,69.69
2023-02-22T21:53:34.172Z,71.21
2023-02-22T23:44:06.624Z,74.35
2023-02-22T23:47:50.703Z,74.00
2023-02-22T23:51:52.649Z,73.93
2023-02-22T23:54:24.635Z,74.28
2023-02-22T23:56:56.880Z,74.22
